Time;durP1;ratioP1;P1;durP2;ratioP2;P2;SDS_P1;SDS_P2;PMS_P1;PMS_P2;Temp;Humidity;BMP_temperature;BMP_pressure;BME280_temperature;BME280_humidity;BME280_pressure;Samples;Min_cycle;Max_cycle;Signal;HPM_P1;HPM_P2
2023/04/13 00:00:09;;;;;;;1999.90;999.90;;;5.10;99.90;;;;;;5032606;28;20041;-76
2023/04/13 00:02:38;;;;;;;1999.90;999.90;;;5.20;99.90;;;;;;5034153;28;20454;-78
2023/04/13 00:05:06;;;;;;;1999.90;999.90;;;5.10;99.90;;;;;;5033576;28;20135;-76
2023/04/13 00:07:32;;;;;;;1999.90;999.90;;;5.10;99.90;;;;;;5037383;28;20039;-76
2023/04/13 00:10:01;;;;;;;1999.90;999.90;;;5.20;99.90;;;;;;5036357;28;20380;-76
2023/04/13 00:12:27;;;;;;;1999.90;999.90;;;5.20;99.90;;;;;;5033426;28;20036;-75
2023/04/13 00:14:53;;;;;;;1999.90;999.90;;;5.30;99.90;;;;;;5036840;28;20034;-77
2023/04/13 00:17:18;;;;;;;1999.90;999.90;;;5.20;99.90;;;;;;5038090;28;20038;-76
2023/04/13 00:19:46;;;;;;;1999.90;999.90;;;5.20;99.90;;;;;;5017331;28;20045;-77
2023/04/13 00:22:13;;;;;;;1999.90;999.90;;;5.20;99.90;;;;;;5032270;28;20115;-79
2023/04/13 00:24:38;;;;;;;1999.90;999.90;;;5.10;99.90;;;;;;5036205;28;20037;-76
2023/04/13 00:27:04;;;;;;;1999.90;999.90;;;5.10;99.90;;;;;;5033440;28;20044;-75
2023/04/13 00:29:30;;;;;;;1999.90;999.90;;;5.10;99.90;;;;;;5035299;28;20116;-77
2023/04/13 00:31:56;;;;;;;1999.90;999.90;;;5.10;99.90;;;;;;5037281;28;20048;-75
2023/04/13 00:34:22;;;;;;;1999.90;999.90;;;5.10;99.90;;;;;;5035183;28;20025;-77
2023/04/13 00:36:48;;;;;;;1999.90;999.90;;;5.10;99.90;;;;;;5037820;28;20132;-77
2023/04/13 00:39:14;;;;;;;1999.90;999.90;;;5.10;99.90;;;;;;5036976;28;20049;-76
2023/04/13 00:41:40;;;;;;;1999.90;999.90;;;5.20;99.90;;;;;;5042462;28;20112;-76
2023/04/13 00:44:09;;;;;;;1999.90;999.90;;;5.10;99.90;;;;;;5035506;28;20048;-76
2023/04/13 00:46:35;;;;;;;1999.90;999.90;;;5.20;99.90;;;;;;5039773;28;20028;-76
2023/04/13 00:49:01;;;;;;;1999.90;999.90;;;5.10;99.90;;;;;;5053707;28;20083;-76
2023/04/13 00:51:29;;;;;;;1999.90;999.90;;;5.10;99.90;;;;;;5036545;28;20128;-76
2023/04/13 00:53:57;;;;;;;1999.90;999.90;;;5.20;99.90;;;;;;5036368;28;20032;-75
2023/04/13 00:56:26;;;;;;;1999.90;999.90;;;5.10;99.90;;;;;;5037193;28;20103;-75
2023/04/13 00:58:52;;;;;;;1999.90;999.90;;;5.10;99.90;;;;;;5034985;28;20052;-76
2023/04/13 01:01:18;;;;;;;1999.90;999.90;;;5.00;99.90;;;;;;5035400;28;20116;-76
2023/04/13 01:03:44;;;;;;;1999.90;999.90;;;5.00;99.90;;;;;;5035795;28;20161;-77
2023/04/13 01:06:20;;;;;;;1999.90;999.90;;;5.00;99.90;;;;;;5036172;28;20049;-76
2023/04/13 01:09:04;;;;;;;1999.90;999.90;;;5.00;99.90;;;;;;5034232;28;20037;-77
2023/04/13 01:11:35;;;;;;;1999.90;999.90;;;5.00;99.90;;;;;;5038542;28;20071;-76
2023/04/13 01:14:27;;;;;;;;;;;5.00;99.90;;;;;;5030102;28;20422;-76
2023/04/13 01:16:58;;;;;;;1999.90;999.90;;;5.10;99.90;;;;;;5030635;28;19948;-76
2023/04/13 01:19:45;;;;;;;1999.90;999.90;;;5.10;99.90;;;;;;5032955;28;20032;-76
2023/04/13 01:22:13;;;;;;;1999.90;999.90;;;5.10;99.90;;;;;;5038887;28;20111;-76
2023/04/13 01:25:16;;;;;;;1999.90;999.90;;;5.10;99.90;;;;;;5032706;28;20086;-78
2023/04/13 01:27:46;;;;;;;1999.90;999.90;;;5.10;99.90;;;;;;5032260;28;20034;-76
2023/04/13 01:30:20;;;;;;;1999.90;999.90;;;5.10;99.90;;;;;;5031570;28;20535;-78
2023/04/13 01:32:48;;;;;;;1999.90;999.90;;;5.20;99.90;;;;;;5034589;28;20033;-76
2023/04/13 01:35:14;;;;;;;1999.90;999.90;;;5.10;99.90;;;;;;5033748;28;20124;-76
2023/04/13 01:37:42;;;;;;;1999.90;999.90;;;5.10;99.90;;;;;;5034341;28;20116;-76
2023/04/13 01:40:10;;;;;;;1999.90;999.90;;;5.10;99.90;;;;;;5033301;28;20026;-76
2023/04/13 01:42:36;;;;;;;1999.90;999.90;;;5.10;99.90;;;;;;5033516;28;20503;-76
2023/04/13 01:45:09;;;;;;;1999.90;999.90;;;5.20;99.90;;;;;;5033725;28;20040;-76
2023/04/13 01:47:37;;;;;;;1999.90;999.90;;;5.10;99.90;;;;;;5034802;28;20083;-77
2023/04/13 01:50:27;;;;;;;1999.90;999.90;;;5.20;99.90;;;;;;5033469;28;20543;-76
2023/04/13 01:52:56;;;;;;;1999.90;999.90;;;5.20;99.90;;;;;;5029821;28;20095;-76
2023/04/13 01:55:23;;;;;;;1999.90;999.90;;;5.20;99.90;;;;;;5028426;28;20025;-77
2023/04/13 01:57:53;;;;;;;1999.90;999.90;;;5.30;99.90;;;;;;5037435;28;20454;-77
2023/04/13 02:00:19;;;;;;;1999.90;999.90;;;5.30;99.90;;;;;;5031749;28;20434;-78
2023/04/13 02:02:44;;;;;;;1999.90;999.90;;;5.30;99.90;;;;;;5034769;28;20087;-78
2023/04/13 02:05:10;;;;;;;1999.90;999.90;;;5.40;99.90;;;;;;5031138;28;20056;-77
2023/04/13 02:07:41;;;;;;;1999.90;999.90;;;5.40;99.90;;;;;;5034832;28;20045;-76
2023/04/13 02:10:07;;;;;;;1999.90;999.90;;;5.50;99.90;;;;;;5029886;28;20025;-78
2023/04/13 02:12:33;;;;;;;1999.90;999.90;;;5.50;99.90;;;;;;5032626;28;20029;-76
2023/04/13 02:15:00;;;;;;;1999.90;999.90;;;5.40;99.90;;;;;;5032479;28;20400;-78
2023/04/13 02:17:28;;;;;;;1999.90;999.90;;;5.30;99.90;;;;;;5037452;28;20044;-77
2023/04/13 02:19:58;;;;;;;1999.90;999.90;;;5.20;99.90;;;;;;5028756;28;20045;-77
2023/04/13 02:22:23;;;;;;;1999.90;999.90;;;5.20;99.90;;;;;;5033554;28;20030;-76
2023/04/13 02:24:50;;;;;;;1999.90;999.90;;;5.20;99.90;;;;;;5036267;28;20040;-76
2023/04/13 02:27:16;;;;;;;1999.90;999.90;;;5.10;99.90;;;;;;5036099;28;20129;-77
2023/04/13 02:29:42;;;;;;;1999.90;999.90;;;5.10;99.90;;;;;;5032106;28;20371;-76
2023/04/13 02:32:08;;;;;;;1999.90;999.90;;;5.10;99.90;;;;;;5034406;28;20531;-77
2023/04/13 02:34:34;;;;;;;1999.90;999.90;;;5.10;99.90;;;;;;5032765;28;20033;-76
2023/04/13 02:37:01;;;;;;;1999.90;999.90;;;5.00;99.90;;;;;;5031973;28;20057;-77
2023/04/13 02:39:27;;;;;;;1999.90;999.90;;;5.00;99.90;;;;;;5048125;28;20079;-75
2023/04/13 02:41:53;;;;;;;1999.90;999.90;;;5.00;99.90;;;;;;5036295;28;20396;-76
2023/04/13 02:44:18;;;;;;;1999.90;999.90;;;5.00;99.90;;;;;;5028736;28;20029;-76
2023/04/13 02:46:48;;;;;;;1999.90;999.90;;;5.00;99.90;;;;;;5034297;28;20049;-77
2023/04/13 02:49:14;;;;;;;1999.90;999.90;;;5.00;99.90;;;;;;5031044;28;20037;-76
2023/04/13 02:51:39;;;;;;;1999.90;999.90;;;5.00;99.90;;;;;;5034991;28;20287;-76
2023/04/13 02:54:10;;;;;;;1999.90;999.90;;;5.00;99.90;;;;;;5034110;28;20029;-76
2023/04/13 02:56:36;;;;;;;1999.90;999.90;;;5.00;99.90;;;;;;5034799;28;20037;-77
2023/04/13 02:59:02;;;;;;;1999.90;999.90;;;5.00;99.90;;;;;;5034436;28;20035;-76
2023/04/13 03:01:28;;;;;;;1999.90;999.90;;;4.90;99.90;;;;;;5033769;28;20038;-77
2023/04/13 03:03:54;;;;;;;1999.90;999.90;;;4.90;99.90;;;;;;5030181;28;20083;-77
2023/04/13 03:06:23;;;;;;;1999.90;999.90;;;4.90;99.90;;;;;;5034426;28;20048;-77
2023/04/13 03:08:50;;;;;;;1999.90;999.90;;;4.90;99.90;;;;;;5033834;28;20503;-77
2023/04/13 03:11:16;;;;;;;1999.90;999.90;;;4.80;99.90;;;;;;5034414;28;20056;-76
2023/04/13 03:13:42;;;;;;;1999.90;999.90;;;4.70;99.90;;;;;;5030839;28;20030;-78
2023/04/13 03:16:11;;;;;;;1999.90;999.90;;;4.70;99.90;;;;;;5034744;28;20079;-77
2023/04/13 03:18:37;;;;;;;1999.90;999.90;;;4.70;99.90;;;;;;5029288;28;20121;-77
2023/04/13 03:21:05;;;;;;;1999.90;999.90;;;4.70;99.90;;;;;;5035205;28;20120;-76
2023/04/13 03:23:31;;;;;;;1999.90;999.90;;;4.60;99.90;;;;;;5031000;28;20029;-77
2023/04/13 03:25:57;;;;;;;1999.90;999.90;;;4.60;99.90;;;;;;5034834;28;20037;-77
2023/04/13 03:28:23;;;;;;;1999.90;999.90;;;4.60;99.90;;;;;;5030054;28;20045;-76
2023/04/13 03:30:49;;;;;;;1999.90;999.90;;;4.50;99.90;;;;;;5029299;28;20044;-77
2023/04/13 03:33:14;;;;;;;1999.90;999.90;;;4.50;99.90;;;;;;5030803;28;20037;-76
2023/04/13 03:35:40;;;;;;;1999.90;999.90;;;4.50;99.90;;;;;;5035655;28;20052;-76
2023/04/13 03:38:06;;;;;;;1999.90;999.90;;;4.40;99.90;;;;;;5030644;28;20083;-76
2023/04/13 03:40:32;;;;;;;1999.90;999.90;;;4.30;99.90;;;;;;5033240;28;20021;-76
2023/04/13 03:42:57;;;;;;;1999.90;999.90;;;4.30;99.90;;;;;;5032046;28;20041;-76
2023/04/13 03:45:23;;;;;;;1999.90;999.90;;;4.20;99.90;;;;;;5032409;28;20112;-76
2023/04/13 03:47:48;;;;;;;1999.90;999.90;;;4.10;99.90;;;;;;5031583;28;20038;-76
2023/04/13 03:50:14;;;;;;;1999.90;999.90;;;4.10;99.90;;;;;;5032619;28;20045;-76
2023/04/13 03:52:40;;;;;;;1999.90;999.90;;;4.10;99.90;;;;;;5030024;28;20585;-77
2023/04/13 03:55:06;;;;;;;1999.90;999.90;;;4.00;99.90;;;;;;5032450;28;20057;-76
2023/04/13 03:57:33;;;;;;;1999.90;999.90;;;4.00;99.90;;;;;;5030187;28;20041;-76
2023/04/13 03:59:58;;;;;;;1999.90;999.90;;;4.00;99.90;;;;;;5032834;28;20116;-75
2023/04/13 04:02:24;;;;;;;1999.90;999.90;;;4.10;99.90;;;;;;5029725;28;20116;-76
2023/04/13 04:04:49;;;;;;;1999.90;999.90;;;4.10;99.90;;;;;;5033115;28;20087;-76
2023/04/13 04:07:15;;;;;;;1999.90;999.90;;;4.10;99.90;;;;;;5032216;28;20662;-75
2023/04/13 04:09:41;;;;;;;1999.90;999.90;;;4.20;99.90;;;;;;5034753;28;20529;-76
2023/04/13 04:12:07;;;;;;;1999.90;999.90;;;4.20;99.90;;;;;;5032627;28;20075;-76
2023/04/13 04:14:33;;;;;;;1999.90;999.90;;;4.30;99.90;;;;;;5034414;28;20029;-76
2023/04/13 04:16:59;;;;;;;1999.90;999.90;;;4.30;99.90;;;;;;5037868;28;20026;-76
2023/04/13 04:19:24;;;;;;;1999.90;999.90;;;4.40;99.90;;;;;;5042318;28;20032;-76
2023/04/13 04:21:56;;;;;;;1999.90;999.90;;;4.40;99.90;;;;;;5035293;28;20456;-77
2023/04/13 04:24:22;;;;;;;1999.90;999.90;;;4.40;99.90;;;;;;5017743;28;20112;-76
2023/04/13 04:26:49;;;;;;;1999.90;999.90;;;4.40;99.90;;;;;;5033800;28;20032;-77
2023/04/13 04:29:16;;;;;;;1999.90;999.90;;;4.40;99.90;;;;;;5035185;28;20033;-76
2023/04/13 04:31:43;;;;;;;1999.90;999.90;;;4.40;99.90;;;;;;5037629;28;20056;-76
2023/04/13 04:34:09;;;;;;;1999.90;999.90;;;4.40;99.90;;;;;;5034495;28;20407;-76
2023/04/13 04:36:40;;;;;;;1999.90;999.90;;;4.40;99.90;;;;;;5036098;28;20130;-76
2023/04/13 04:39:07;;;;;;;1999.90;999.90;;;4.40;99.90;;;;;;5034633;28;20051;-76
2023/04/13 04:41:36;;;;;;;1999.90;999.90;;;4.40;99.90;;;;;;5034273;28;20032;-77
2023/04/13 04:44:02;;;;;;;1999.90;999.90;;;4.50;99.90;;;;;;5035706;28;20120;-75
2023/04/13 04:46:28;;;;;;;1999.90;999.90;;;4.50;99.90;;;;;;5035433;28;20029;-76
2023/04/13 04:48:54;;;;;;;1999.90;999.90;;;4.40;99.90;;;;;;5036767;28;20029;-76
2023/04/13 04:51:23;;;;;;;1999.90;999.90;;;4.40;99.90;;;;;;5034721;28;20152;-77
2023/04/13 04:53:50;;;;;;;1999.90;999.90;;;4.50;99.90;;;;;;5050596;28;20066;-76
2023/04/13 04:56:15;;;;;;;1999.90;999.90;;;4.50;99.90;;;;;;5032804;28;20079;-76
2023/04/13 04:58:41;;;;;;;1999.90;999.90;;;4.50;99.90;;;;;;5032264;28;20033;-77
2023/04/13 05:01:07;;;;;;;1999.90;999.90;;;4.50;99.90;;;;;;5020714;28;20487;-77
2023/04/13 05:03:33;;;;;;;1999.90;999.90;;;4.60;99.90;;;;;;5033621;28;20045;-76
2023/04/13 05:05:59;;;;;;;1999.90;999.90;;;4.60;99.90;;;;;;5030882;28;20029;-76
2023/04/13 05:08:27;;;;;;;1999.90;999.90;;;4.60;99.90;;;;;;5030190;28;20495;-75
2023/04/13 05:10:53;;;;;;;1999.90;999.90;;;4.60;99.90;;;;;;5029881;28;20092;-77
2023/04/13 05:13:18;;;;;;;1999.90;999.90;;;4.60;99.90;;;;;;5034060;28;20029;-76
2023/04/13 05:15:44;;;;;;;1999.90;999.90;;;4.60;99.90;;;;;;5028675;28;20454;-77
2023/04/13 05:18:11;;;;;;;1999.90;999.90;;;4.70;99.90;;;;;;5030097;28;20499;-76
2023/04/13 05:20:37;;;;;;;1999.90;999.90;;;4.60;99.90;;;;;;5029447;28;20040;-77
2023/04/13 05:23:03;;;;;;;1999.90;999.90;;;4.60;99.90;;;;;;5033446;28;20033;-77
2023/04/13 05:25:29;;;;;;;1999.90;999.90;;;4.60;99.90;;;;;;5033616;28;20034;-77
2023/04/13 05:27:55;;;;;;;1999.90;999.90;;;4.60;99.90;;;;;;5033977;28;20052;-74
2023/04/13 05:30:21;;;;;;;1999.90;999.90;;;4.60;99.90;;;;;;5033771;28;20104;-76
2023/04/13 05:32:47;;;;;;;1999.90;999.90;;;4.60;99.90;;;;;;5033401;28;20071;-76
2023/04/13 05:35:12;;;;;;;1999.90;999.90;;;4.70;99.90;;;;;;5031097;28;20414;-76
2023/04/13 05:37:38;;;;;;;1999.90;999.90;;;4.70;99.90;;;;;;5031466;28;20116;-76
2023/04/13 05:40:08;;;;;;;1999.90;999.90;;;4.80;99.90;;;;;;5036553;28;20490;-76
2023/04/13 05:42:34;;;;;;;1999.90;999.90;;;4.80;99.90;;;;;;5029253;28;20048;-75
2023/04/13 05:45:00;;;;;;;1999.90;999.90;;;4.80;99.90;;;;;;5042895;28;20036;-77
2023/04/13 05:47:28;;;;;;;1999.90;999.90;;;4.80;99.90;;;;;;5034926;28;20037;-76
2023/04/13 05:49:59;;;;;;;1999.90;999.90;;;4.80;99.90;;;;;;5039781;28;20049;-79
2023/04/13 05:52:25;;;;;;;1999.90;999.90;;;4.70;99.90;;;;;;5037911;28;20025;-75
2023/04/13 05:54:51;;;;;;;1999.90;999.90;;;4.80;99.90;;;;;;5043158;28;20033;-76
2023/04/13 05:57:19;;;;;;;1999.90;999.90;;;4.80;99.90;;;;;;5034859;28;20033;-77
2023/04/13 05:59:45;;;;;;;1999.90;999.90;;;4.90;99.90;;;;;;5031555;28;20187;-77
2023/04/13 06:02:11;;;;;;;1999.90;999.90;;;5.00;99.90;;;;;;5035070;28;20495;-76
2023/04/13 06:04:36;;;;;;;1999.90;999.90;;;4.90;99.90;;;;;;5035275;28;20036;-77
2023/04/13 06:07:03;;;;;;;1999.90;999.90;;;4.80;99.90;;;;;;5030908;28;20045;-77
2023/04/13 06:09:28;;;;;;;1999.90;999.90;;;4.80;99.90;;;;;;5043067;28;20034;-76
2023/04/13 06:11:54;;;;;;;1999.90;999.90;;;4.90;99.90;;;;;;5030863;28;20373;-78
2023/04/13 06:14:21;;;;;;;1999.90;999.90;;;5.00;99.90;;;;;;5028387;28;20053;-76
2023/04/13 06:16:46;;;;;;;1999.90;999.90;;;5.10;99.90;;;;;;5028674;28;20033;-77
2023/04/13 06:19:12;;;;;;;1999.90;999.90;;;5.20;99.90;;;;;;5028936;28;20495;-77
2023/04/13 06:21:38;;;;;;;1999.90;999.90;;;5.30;99.90;;;;;;5026947;28;20561;-75
2023/04/13 06:24:04;;;;;;;1999.90;999.90;;;5.20;99.90;;;;;;5026783;28;20746;-78
2023/04/13 06:26:32;;;;;;;1999.90;999.90;;;5.20;99.90;;;;;;5030912;28;20036;-77
2023/04/13 06:28:58;;;;;;;1999.90;999.90;;;5.40;99.90;;;;;;5050280;28;20034;-76
2023/04/13 06:31:26;;;;;;;1999.90;999.90;;;5.30;99.90;;;;;;5031183;28;20056;-78
2023/04/13 06:33:52;;;;;;;1999.90;999.90;;;5.40;99.90;;;;;;5031877;28;20032;-76
2023/04/13 06:36:18;;;;;;;1999.90;999.90;;;5.30;99.90;;;;;;5029752;28;20044;-77
2023/04/13 06:38:44;;;;;;;1999.90;999.90;;;5.20;99.90;;;;;;5029131;28;20025;-76
2023/04/13 06:41:10;;;;;;;1999.90;999.90;;;5.40;99.90;;;;;;5029983;28;20028;-77
2023/04/13 06:43:36;;;;;;;1999.90;999.90;;;5.30;99.90;;;;;;5031128;28;20087;-78
2023/04/13 06:46:03;;;;;;;1999.90;999.90;;;5.40;99.90;;;;;;5031464;28;20037;-76
2023/04/13 06:48:29;;;;;;;1999.90;999.90;;;5.40;99.90;;;;;;5048944;28;20040;-76
2023/04/13 06:50:56;;;;;;;1999.90;999.90;;;5.40;99.90;;;;;;5026715;28;20036;-78
2023/04/13 06:53:22;;;;;;;1999.90;999.90;;;5.20;99.90;;;;;;5030558;28;20029;-78
2023/04/13 06:55:48;;;;;;;1999.90;999.90;;;5.30;99.90;;;;;;5029394;28;20030;-76
2023/04/13 06:58:14;;;;;;;1999.90;999.90;;;5.20;99.90;;;;;;5028091;28;20048;-77
2023/04/13 07:00:40;;;;;;;1999.90;999.90;;;5.20;99.90;;;;;;5046244;28;20504;-76
2023/04/13 07:03:05;;;;;;;1999.90;999.90;;;5.30;99.90;;;;;;5048097;28;20179;-79
2023/04/13 07:05:31;;;;;;;1999.90;999.90;;;5.40;99.90;;;;;;5035672;28;20037;-77
2023/04/13 07:07:57;;;;;;;1999.90;999.90;;;5.40;99.90;;;;;;5031451;28;20044;-79
2023/04/13 07:10:23;;;;;;;1999.90;999.90;;;5.40;99.90;;;;;;5034276;28;20030;-76
2023/04/13 07:12:48;;;;;;;1999.90;999.90;;;5.40;99.90;;;;;;5038237;28;20458;-77
2023/04/13 07:15:14;;;;;;;1999.90;999.90;;;5.30;99.90;;;;;;5034333;28;20566;-77
2023/04/13 07:17:40;;;;;;;1999.90;999.90;;;5.30;99.90;;;;;;5038184;28;20164;-78
2023/04/13 07:20:06;;;;;;;1999.90;999.90;;;5.20;99.90;;;;;;5030325;28;20159;-77
2023/04/13 07:22:34;;;;;;;1999.90;999.90;;;5.00;99.90;;;;;;5033522;28;20037;-76
2023/04/13 07:25:00;;;;;;;1999.90;999.90;;;5.20;99.90;;;;;;5032436;28;20084;-78
2023/04/13 07:27:26;;;;;;;1999.90;999.90;;;5.20;99.90;;;;;;5032856;28;20214;-78
2023/04/13 07:29:54;;;;;;;1999.90;999.90;;;5.40;99.90;;;;;;5029434;28;20025;-77
2023/04/13 07:32:20;;;;;;;1999.90;999.90;;;5.60;99.90;;;;;;5033146;28;20111;-78
2023/04/13 07:34:46;;;;;;;1999.90;999.90;;;5.40;99.90;;;;;;5033871;28;20113;-77
2023/04/13 07:37:12;;;;;;;1999.90;999.90;;;5.30;99.90;;;;;;5039554;28;20128;-78
2023/04/13 07:39:38;;;;;;;1999.90;999.90;;;5.30;99.90;;;;;;5031035;28;20040;-78
2023/04/13 07:42:04;;;;;;;1999.90;999.90;;;5.10;99.90;;;;;;5028763;28;20042;-78
2023/04/13 07:44:30;;;;;;;1999.90;999.90;;;5.10;99.90;;;;;;5029740;28;20095;-77
2023/04/13 07:46:56;;;;;;;1999.90;999.90;;;5.10;99.90;;;;;;5034912;28;20041;-76
2023/04/13 07:49:22;;;;;;;1999.90;999.90;;;5.20;99.90;;;;;;5036210;28;20028;-77
2023/04/13 07:51:51;;;;;;;1999.90;999.90;;;5.10;99.90;;;;;;5035958;28;20055;-77
2023/04/13 07:54:16;;;;;;;1999.90;999.90;;;5.00;99.90;;;;;;5041104;28;20029;-76
2023/04/13 07:56:42;;;;;;;1999.90;999.90;;;5.30;99.90;;;;;;5038949;28;20039;-71
2023/04/13 07:59:08;;;;;;;1999.90;999.90;;;5.30;99.90;;;;;;5038574;28;20030;-80
2023/04/13 08:01:33;;;;;;;1999.90;999.90;;;5.10;99.90;;;;;;5054946;28;20033;-78
2023/04/13 08:03:59;;;;;;;1999.90;999.90;;;5.20;99.90;;;;;;5038246;28;20038;-77
2023/04/13 08:06:26;;;;;;;1999.90;999.90;;;5.60;99.90;;;;;;5035266;28;20035;-80
2023/04/13 08:08:53;;;;;;;1999.90;999.90;;;5.20;99.90;;;;;;5037637;28;20037;-77
2023/04/13 08:11:18;;;;;;;1999.90;999.90;;;5.30;99.90;;;;;;5034121;28;20024;-78
2023/04/13 08:13:45;;;;;;;1999.90;999.90;;;5.10;99.90;;;;;;5030990;28;20480;-77
2023/04/13 08:16:11;;;;;;;1999.90;999.90;;;5.10;99.90;;;;;;5032235;28;20021;-77
2023/04/13 08:25:40;;;;;;;1999.90;999.90;;;5.60;99.90;;;;;;5043479;28;20032;-81
2023/04/13 08:28:06;;;;;;;1999.90;999.90;;;6.00;99.90;;;;;;5029011;28;20124;-77
2023/04/13 08:30:32;;;;;;;1999.90;999.90;;;6.30;99.90;;;;;;5028106;28;20503;-77
2023/04/13 08:32:59;;;;;;;1999.90;999.90;;;5.80;99.90;;;;;;5038350;28;20052;-77
2023/04/13 08:35:24;;;;;;;1999.90;999.90;;;6.40;99.90;;;;;;5034495;28;20051;-78
2023/04/13 08:37:51;;;;;;;1999.90;999.90;;;6.40;99.90;;;;;;5031225;28;20041;-74
2023/04/13 08:40:17;;;;;;;1999.90;999.90;;;6.70;99.90;;;;;;5029502;28;20021;-72
2023/04/13 08:42:43;;;;;;;1999.90;999.90;;;7.30;99.90;;;;;;5033564;28;20033;-72
2023/04/13 08:45:09;;;;;;;1999.90;999.90;;;7.00;99.90;;;;;;5034952;28;20129;-71
2023/04/13 08:47:35;;;;;;;1999.90;999.90;;;7.00;99.90;;;;;;5037545;28;20072;-72
2023/04/13 08:50:01;;;;;;;1999.90;999.90;;;7.00;99.90;;;;;;5030961;28;20041;-72
2023/04/13 08:52:28;;;;;;;1999.90;999.90;;;7.30;91.40;;;;;;5032989;28;20037;-73
2023/04/13 08:54:56;;;;;;;1999.90;999.90;;;7.20;83.20;;;;;;5035026;28;20053;-71
2023/04/13 08:57:23;;;;;;;1999.90;999.90;;;7.50;82.70;;;;;;5038091;28;20034;-85
2023/04/13 08:59:51;;;;;;;1999.90;999.90;;;7.60;77.80;;;;;;5031950;28;20120;-71
2023/04/13 09:02:22;;;;;;;1999.90;999.90;;;8.20;81.60;;;;;;5033330;28;20547;-72
2023/04/13 09:04:50;;;;;;;1999.90;999.90;;;8.00;77.60;;;;;;5033884;28;20124;-72
2023/04/13 09:51:40;;;;;;;1999.90;999.90;;;8.20;71.80;;;;;;5014315;28;20048;-83
2023/04/13 09:54:06;;;;;;;1999.90;999.90;;;8.30;71.30;;;;;;5027590;28;20032;-82
2023/04/13 09:56:43;;;;;;;1999.90;999.90;;;8.40;70.10;;;;;;5027017;28;20028;-83
2023/04/13 09:59:09;;;;;;;1999.90;999.90;;;8.20;70.80;;;;;;5015034;28;20041;-80
2023/04/13 10:01:36;;;;;;;1999.90;999.90;;;7.80;70.40;;;;;;5032802;28;20387;-80
2023/04/13 10:04:07;;;;;;;1999.90;999.90;;;7.80;71.30;;;;;;5026428;28;20033;-80
2023/04/13 10:06:40;;;;;;;1999.90;999.90;;;7.60;69.70;;;;;;5032032;28;20519;-80
2023/04/13 10:09:06;;;;;;;1999.90;999.90;;;7.60;72.30;;;;;;5048312;28;20066;-84
2023/04/13 10:11:51;;;;;;;1999.90;999.90;;;7.50;72.70;;;;;;5034621;28;20104;-79
2023/04/13 10:14:24;;;;;;;1999.90;999.90;;;7.40;73.10;;;;;;5043475;28;20033;-80
2023/04/13 10:17:03;;;;;;;1999.90;999.90;;;7.50;72.30;;;;;;5028124;28;20018;-83
2023/04/13 10:19:42;;;;;;;1999.90;999.90;;;7.60;70.70;;;;;;5031074;28;20046;-80
2023/04/13 10:22:09;;;;;;;1999.90;999.90;;;7.80;70.70;;;;;;5023170;28;20562;-80
2023/04/13 10:24:37;;;;;;;1999.90;999.90;;;8.10;70.40;;;;;;5032818;28;20113;-84
2023/04/13 10:27:29;;;;;;;1999.90;999.90;;;8.30;68.60;;;;;;5019228;28;20079;-81
2023/04/13 10:29:55;;;;;;;1999.90;999.90;;;8.50;68.60;;;;;;5030548;28;20069;-83
2023/04/13 10:32:22;;;;;;;1999.90;999.90;;;8.50;68.30;;;;;;5035853;28;20060;-82
2023/04/13 10:34:48;;;;;;;1999.90;999.90;;;9.10;68.70;;;;;;5028273;28;20033;-81
2023/04/13 10:37:23;;;;;;;1999.90;999.90;;;9.00;66.90;;;;;;5028374;28;20026;-80
2023/04/13 10:40:05;;;;;;;1999.90;999.90;;;9.50;67.00;;;;;;5030996;28;20116;-80
2023/04/13 10:42:45;;;;;;;1999.90;999.90;;;9.70;67.10;;;;;;5030850;28;20028;-82
2023/04/13 10:45:25;;;;;;;;;;;10.00;64.00;;;;;;5032392;28;20056;-81
2023/04/13 10:47:54;;;;;;;1999.90;999.90;;;9.80;65.00;;;;;;5026952;28;20443;-82
2023/04/13 10:50:21;;;;;;;1999.90;999.90;;;10.50;64.20;;;;;;5024235;28;20025;-84
2023/04/13 10:53:04;;;;;;;1999.90;999.90;;;10.40;63.40;;;;;;5026851;28;20041;-83
2023/04/13 10:55:35;;;;;;;1999.90;999.90;;;10.00;61.90;;;;;;5039714;28;20079;-83
2023/04/13 10:58:12;;;;;;;1999.90;999.90;;;10.50;65.60;;;;;;5038809;28;20040;-82
2023/04/13 11:00:38;;;;;;;1999.90;999.90;;;10.40;60.60;;;;;;5032111;28;20100;-79
2023/04/13 11:03:05;;;;;;;1999.90;999.90;;;9.80;61.70;;;;;;5030580;28;20539;-80
2023/04/13 11:05:32;;;;;;;1999.90;999.90;;;9.70;64.80;;;;;;5034189;28;20098;-83
2023/04/13 11:07:57;;;;;;;1999.90;999.90;;;10.20;63.50;;;;;;5027622;28;20061;-84
2023/04/13 11:10:28;;;;;;;1999.90;999.90;;;9.80;61.90;;;;;;5033786;28;20308;-83
2023/04/13 11:12:56;;;;;;;1999.90;999.90;;;10.00;61.20;;;;;;5021463;28;20049;-83
2023/04/13 11:15:27;;;;;;;1999.90;999.90;;;9.80;62.90;;;;;;5028612;28;20076;-83
2023/04/13 11:17:53;;;;;;;;;;;10.00;64.20;;;;;;5032840;28;20060;-83
2023/04/13 11:20:38;;;;;;;1999.90;999.90;;;9.90;61.10;;;;;;5035532;28;19956;-84
2023/04/13 11:23:17;;;;;;;1999.90;999.90;;;9.90;59.90;;;;;;5032491;28;20051;-79
2023/04/13 11:26:03;;;;;;;1999.90;999.90;;;9.90;61.70;;;;;;5042695;28;20049;-78
2023/04/13 11:28:45;;;;;;;1999.90;999.90;;;9.80;60.90;;;;;;5049939;28;20061;-78
2023/04/13 11:31:11;;;;;;;1999.90;999.90;;;10.30;63.30;;;;;;5039435;28;20116;-79
2023/04/13 11:33:38;;;;;;;1999.90;999.90;;;10.30;63.80;;;;;;5037503;28;20183;-76
2023/04/13 11:36:04;;;;;;;1999.90;999.90;;;10.10;62.50;;;;;;5033259;28;20029;-80
2023/04/13 11:38:33;;;;;;;1999.90;999.90;;;10.20;62.10;;;;;;5016859;28;20151;-81
2023/04/13 11:41:03;;;;;;;1999.90;999.90;;;10.00;61.80;;;;;;5038414;28;20041;-83
2023/04/13 11:43:29;;;;;;;1999.90;999.90;;;9.90;60.70;;;;;;5017984;28;20404;-83
2023/04/13 11:45:55;;;;;;;1999.90;999.90;;;9.80;61.00;;;;;;5034860;28;20044;-86
2023/04/13 11:48:22;;;;;;;1999.90;999.90;;;9.70;62.40;;;;;;5034223;28;20034;-86
2023/04/13 11:50:49;;;;;;;1999.90;999.90;;;10.00;60.60;;;;;;5054422;28;20026;-83
2023/04/13 11:53:16;;;;;;;1999.90;999.90;;;9.80;59.80;;;;;;5032120;28;20041;-87
2023/04/13 11:55:42;;;;;;;1999.90;999.90;;;10.10;60.50;;;;;;5034500;28;20559;-85
2023/04/13 11:58:17;;;;;;;1999.90;999.90;;;10.10;61.10;;;;;;5031563;28;20108;-82
2023/04/13 12:00:48;;;;;;;1999.90;999.90;;;10.00;60.00;;;;;;5035824;28;20076;-83
2023/04/13 12:03:15;;;;;;;1999.90;999.90;;;9.90;59.20;;;;;;5052702;28;20044;-81
2023/04/13 12:05:42;;;;;;;1999.90;999.90;;;9.90;60.50;;;;;;5038448;28;20032;-78
2023/04/13 12:08:18;;;;;;;1999.90;999.90;;;10.40;62.00;;;;;;5034757;28;20511;-80
2023/04/13 12:10:44;;;;;;;1999.90;999.90;;;10.00;59.00;;;;;;5029991;28;20396;-82
2023/04/13 12:13:10;;;;;;;1999.90;999.90;;;10.20;60.60;;;;;;5038339;28;20029;-78
2023/04/13 12:15:45;;;;;;;1999.90;999.90;;;10.70;59.30;;;;;;5017448;28;20025;-84
2023/04/13 12:18:12;;;;;;;1999.90;999.90;;;10.80;58.10;;;;;;5033931;28;20037;-78
2023/04/13 12:20:42;;;;;;;1999.90;999.90;;;11.20;57.70;;;;;;5053059;28;20403;-82
2023/04/13 12:23:22;;;;;;;1999.90;999.90;;;11.30;58.50;;;;;;5033363;28;20040;-79
2023/04/13 12:26:07;;;;;;;1999.90;999.90;;;10.80;57.20;;;;;;5036227;28;20058;-76
2023/04/13 12:28:34;;;;;;;1999.90;999.90;;;11.20;58.10;;;;;;5033302;28;20038;-73
2023/04/13 12:31:11;;;;;;;1999.90;999.90;;;10.70;57.30;;;;;;5024730;28;20103;-75
2023/04/13 12:33:38;;;;;;;1999.90;999.90;;;11.20;60.00;;;;;;5032730;28;20499;-75
2023/04/13 12:36:10;;;;;;;1999.90;999.90;;;10.80;57.50;;;;;;5038692;28;20148;-73
2023/04/13 12:38:36;;;;;;;1999.90;999.90;;;11.00;59.20;;;;;;5030917;28;20623;-73
2023/04/13 12:41:02;;;;;;;1999.90;999.90;;;11.10;57.70;;;;;;5032847;28;20388;-74
2023/04/13 12:43:28;;;;;;;1999.90;999.90;;;10.90;58.30;;;;;;5034223;28;20112;-74
2023/04/13 12:45:54;;;;;;;1999.90;999.90;;;10.70;59.30;;;;;;5039999;28;20266;-73
2023/04/13 12:48:21;;;;;;;1999.90;999.90;;;10.70;58.60;;;;;;5033356;28;20025;-77
2023/04/13 12:50:49;;;;;;;1999.90;999.90;;;10.30;57.40;;;;;;5037998;28;20042;-80
2023/04/13 12:53:15;;;;;;;1999.90;999.90;;;10.30;61.10;;;;;;5049615;28;20037;-79
2023/04/13 12:55:42;;;;;;;1999.90;999.90;;;10.40;58.80;;;;;;5031220;28;20365;-70
2023/04/13 12:58:08;;;;;;;1999.90;999.90;;;9.80;60.10;;;;;;5031440;28;20037;-70
2023/04/13 13:00:33;;;;;;;1999.90;999.90;;;10.00;63.10;;;;;;5038466;28;20048;-70
2023/04/13 13:03:03;;;;;;;1999.90;999.90;;;9.70;63.80;;;;;;5033914;28;20072;-77